Time,TemperatureF,DewpointF,PressureIn,WindDirection,WindDirectionDegrees,WindSpeedMPH,WindSpeedGustMPH,Humidity,HourlyPrecipIn,Conditions,Clouds,dailyrainin,SoftwareType,DateUTC
2013-05-06 00:02:00,44.4,42.8,29.78,ENE,70,0.0,2.0,94,0.10,,,0.01,Wunderground v.1.15,2013-05-06 05:02:00,
2013-05-06 00:07:00,44.3,42.7,29.77,North,355,3.0,3.0,94,0.12,,,0.02,Wunderground v.1.15,2013-05-06 05:07:00,
2013-05-06 00:14:00,44.3,42.7,29.76,NW,316,10.0,10.0,94,0.08,,,0.02,Wunderground v.1.15,2013-05-06 05:14:00,
2013-05-06 00:19:00,44.1,42.5,29.75,NW,306,7.0,12.0,94,0.07,,,0.03,Wunderground v.1.15,2013-05-06 05:19:00,
2013-05-06 00:24:00,44.0,42.7,29.75,West,262,6.0,10.0,95,0.07,,,0.03,Wunderground v.1.15,2013-05-06 05:24:00,
2013-05-06 00:30:00,43.9,42.6,29.76,North,355,5.0,7.0,95,0.04,,,0.03,Wunderground v.1.15,2013-05-06 05:30:00,
2013-05-06 00:35:00,43.9,42.6,29.75,North,5,6.0,7.0,95,0.00,,,0.03,Wunderground v.1.15,2013-05-06 05:35:00,
2013-05-06 00:41:00,43.9,42.8,29.75,North,351,6.0,6.0,96,0.00,,,0.03,Wunderground v.1.15,2013-05-06 05:41:00,
2013-05-06 00:46:00,43.8,42.5,29.75,North,5,4.0,7.0,95,0.00,,,0.03,Wunderground v.1.15,2013-05-06 05:46:00,
2013-05-06 00:52:00,43.8,42.5,29.76,NNE,13,4.0,6.0,95,0.00,,,0.03,Wunderground v.1.15,2013-05-06 05:52:00,
2013-05-06 00:58:00,44.0,42.4,29.76,North,9,4.0,8.0,94,0.00,,,0.03,Wunderground v.1.15,2013-05-06 05:58:00,
2013-05-06 01:04:00,44.0,42.1,29.76,ESE,121,1.0,7.0,93,0.00,,,0.03,Wunderground v.1.15,2013-05-06 06:04:00,
2013-05-06 01:09:00,43.7,42.1,29.76,ESE,116,2.0,7.0,94,0.00,,,0.03,Wunderground v.1.15,2013-05-06 06:09:00,
2013-05-06 01:14:00,43.6,42.0,29.76,ESE,118,4.0,5.0,94,0.00,,,0.03,Wunderground v.1.15,2013-05-06 06:14:00,
2013-05-06 01:20:00,43.5,42.2,29.77,SE,140,6.0,6.0,95,0.00,,,0.03,Wunderground v.1.15,2013-05-06 06:20:00,
2013-05-06 01:25:00,43.5,42.2,29.77,SE,125,5.0,6.0,95,0.00,,,0.03,Wunderground v.1.15,2013-05-06 06:25:00,
2013-05-06 01:30:00,43.5,42.2,29.77,SE,127,4.0,5.0,95,0.00,,,0.03,Wunderground v.1.15,2013-05-06 06:30:00,
2013-05-06 01:36:00,43.6,42.3,29.77,SSE,166,3.0,5.0,95,0.00,,,0.03,Wunderground v.1.15,2013-05-06 06:36:00,
2013-05-06 01:42:00,43.7,42.6,29.77,East,98,1.0,3.0,96,0.00,,,0.03,Wunderground v.1.15,2013-05-06 06:42:00,
2013-05-06 01:47:00,43.7,42.6,29.76,SE,128,0.0,3.0,96,0.00,,,0.03,Wunderground v.1.15,2013-05-06 06:47:00,
2013-05-06 01:52:00,43.7,42.6,29.76,East,100,3.0,5.0,96,0.00,,,0.03,Wunderground v.1.15,2013-05-06 06:52:00,
2013-05-06 01:57:00,43.7,42.6,29.76,ENE,78,2.0,5.0,96,0.00,,,0.03,Wunderground v.1.15,2013-05-06 06:57:00,
2013-05-06 02:03:00,43.6,42.5,29.76,ESE,122,1.0,4.0,96,0.00,,,0.03,Wunderground v.1.15,2013-05-06 07:03:00,
2013-05-06 02:08:00,43.6,42.5,29.75,SE,135,0.0,5.0,96,0.00,,,0.03,Wunderground v.1.15,2013-05-06 07:08:00,
2013-05-06 02:13:00,43.5,42.4,29.75,ESE,120,7.0,7.0,96,0.00,,,0.03,Wunderground v.1.15,2013-05-06 07:13:00,
2013-05-06 02:18:00,43.4,42.3,29.75,SE,131,3.0,7.0,96,0.00,,,0.03,Wunderground v.1.15,2013-05-06 07:18:00,
2013-05-06 02:23:00,43.3,42.2,29.75,SE,138,1.0,2.0,96,0.00,,,0.03,Wunderground v.1.15,2013-05-06 07:23:00,
2013-05-06 02:28:00,43.2,42.1,29.75,SE,134,1.0,5.0,96,0.00,,,0.03,Wunderground v.1.15,2013-05-06 07:28:00,
2013-05-06 02:33:00,43.3,42.2,29.75,SE,132,2.0,3.0,96,0.00,,,0.03,Wunderground v.1.15,2013-05-06 07:33:00,
2013-05-06 02:38:00,43.4,42.3,29.75,ESE,121,1.0,4.0,96,0.00,,,0.03,Wunderground v.1.15,2013-05-06 07:38:00,
2013-05-06 02:43:00,43.4,42.6,29.75,ESE,115,2.0,3.0,97,0.00,,,0.03,Wunderground v.1.15,2013-05-06 07:43:00,
2013-05-06 02:48:00,43.5,42.7,29.75,SE,128,1.0,4.0,97,0.00,,,0.03,Wunderground v.1.15,2013-05-06 07:48:00,
2013-05-06 02:53:00,43.4,42.6,29.75,SE,134,0.0,4.0,97,0.00,,,0.03,Wunderground v.1.15,2013-05-06 07:53:00,
2013-05-06 02:58:00,43.4,42.3,29.75,SE,134,1.0,4.0,96,0.00,,,0.03,Wunderground v.1.15,2013-05-06 07:58:00,
2013-05-06 03:03:00,43.4,42.6,29.75,SE,126,0.0,2.0,97,0.00,,,0.03,Wunderground v.1.15,2013-05-06 08:03:00,
2013-05-06 03:08:00,43.5,42.7,29.75,NNW,328,0.0,5.0,97,0.00,,,0.03,Wunderground v.1.15,2013-05-06 08:08:00,
2013-05-06 03:13:00,43.5,42.7,29.75,SSE,156,3.0,5.0,97,0.00,,,0.03,Wunderground v.1.15,2013-05-06 08:13:00,
2013-05-06 03:18:00,43.3,42.5,29.75,ESE,118,1.0,5.0,97,0.00,,,0.03,Wunderground v.1.15,2013-05-06 08:18:00,
2013-05-06 03:23:00,43.2,42.4,29.75,SE,138,0.0,2.0,97,0.00,,,0.03,Wunderground v.1.15,2013-05-06 08:23:00,
2013-05-06 03:28:00,43.1,42.3,29.74,SSE,157,0.0,2.0,97,0.00,,,0.03,Wunderground v.1.15,2013-05-06 08:28:00,
2013-05-06 03:33:00,43.2,42.4,29.75,ESE,110,3.0,4.0,97,0.00,,,0.03,Wunderground v.1.15,2013-05-06 08:33:00,
2013-05-06 03:38:00,43.1,42.3,29.74,SE,132,1.0,4.0,97,0.00,,,0.03,Wunderground v.1.15,2013-05-06 08:38:00,
2013-05-06 03:43:00,43.0,42.2,29.74,SE,137,0.0,1.0,97,0.00,,,0.03,Wunderground v.1.15,2013-05-06 08:43:00,
2013-05-06 03:48:00,42.9,42.1,29.74,SE,138,0.0,3.0,97,0.00,,,0.03,Wunderground v.1.15,2013-05-06 08:48:00,
2013-05-06 03:53:00,42.8,42.0,29.74,SE,138,0.0,0.0,97,0.00,,,0.03,Wunderground v.1.15,2013-05-06 08:53:00,
2013-05-06 03:58:00,42.9,42.1,29.74,SE,138,0.0,1.0,97,0.00,,,0.03,Wunderground v.1.15,2013-05-06 08:58:00,
2013-05-06 04:03:00,42.9,42.1,29.74,SE,126,0.0,4.0,97,0.00,,,0.03,Wunderground v.1.15,2013-05-06 09:03:00,
2013-05-06 04:08:00,42.8,42.0,29.74,SE,126,0.0,4.0,97,0.00,,,0.03,Wunderground v.1.15,2013-05-06 09:08:00,
2013-05-06 04:13:00,42.9,42.1,29.74,SE,126,0.0,2.0,97,0.00,,,0.03,Wunderground v.1.15,2013-05-06 09:13:00,
2013-05-06 04:18:00,42.9,42.1,29.74,SE,132,0.0,3.0,97,0.00,,,0.03,Wunderground v.1.15,2013-05-06 09:18:00,
2013-05-06 04:23:00,43.0,42.2,29.74,SE,133,3.0,4.0,97,0.00,,,0.03,Wunderground v.1.15,2013-05-06 09:23:00,
2013-05-06 04:28:00,43.0,42.2,29.74,WSW,239,1.0,4.0,97,0.00,,,0.03,Wunderground v.1.15,2013-05-06 09:28:00,
2013-05-06 04:34:00,42.9,42.1,29.74,SSE,147,3.0,5.0,97,0.00,,,0.03,Wunderground v.1.15,2013-05-06 09:34:00,
2013-05-06 04:39:00,42.8,42.0,29.74,SE,130,0.0,5.0,97,0.00,,,0.03,Wunderground v.1.15,2013-05-06 09:39:00,
2013-05-06 04:44:00,42.8,42.0,29.75,SSE,167,2.0,3.0,97,0.00,,,0.03,Wunderground v.1.15,2013-05-06 09:44:00,
2013-05-06 04:49:00,42.7,41.9,29.75,SSW,205,2.0,3.0,97,0.00,,,0.03,Wunderground v.1.15,2013-05-06 09:49:00,
2013-05-06 04:54:00,42.6,41.8,29.75,SE,132,1.0,2.0,97,0.00,,,0.03,Wunderground v.1.15,2013-05-06 09:54:00,
2013-05-06 04:59:00,42.6,41.8,29.75,SSE,167,0.0,2.0,97,0.00,,,0.03,Wunderground v.1.15,2013-05-06 09:59:00,
2013-05-06 05:04:00,42.6,41.8,29.75,SE,138,0.0,4.0,97,0.00,,,0.03,Wunderground v.1.15,2013-05-06 10:04:00,
2013-05-06 05:09:00,42.7,41.9,29.75,SSE,166,0.0,4.0,97,0.00,,,0.03,Wunderground v.1.15,2013-05-06 10:09:00,
2013-05-06 05:14:00,42.6,41.8,29.75,SE,135,0.0,3.0,97,0.00,,,0.03,Wunderground v.1.15,2013-05-06 10:14:00,
2013-05-06 05:19:00,42.5,41.7,29.75,ESE,111,0.0,3.0,97,0.00,,,0.03,Wunderground v.1.15,2013-05-06 10:19:00,
2013-05-06 05:24:00,42.4,41.6,29.76,SE,138,0.0,1.0,97,0.00,,,0.03,Wunderground v.1.15,2013-05-06 10:24:00,
2013-05-06 05:29:00,42.4,41.6,29.75,ESE,113,0.0,2.0,97,0.00,,,0.03,Wunderground v.1.15,2013-05-06 10:29:00,
2013-05-06 05:34:00,42.4,41.6,29.76,SE,138,0.0,5.0,97,0.00,,,0.03,Wunderground v.1.15,2013-05-06 10:34:00,
2013-05-06 05:39:00,42.5,41.7,29.76,ESE,113,0.0,5.0,97,0.00,,,0.03,Wunderground v.1.15,2013-05-06 10:39:00,
2013-05-06 05:44:00,42.7,41.9,29.76,ESE,113,0.0,3.0,97,0.00,,,0.03,Wunderground v.1.15,2013-05-06 10:44:00,
2013-05-06 05:49:00,42.7,41.9,29.76,ESE,113,0.0,3.0,97,0.00,,,0.03,Wunderground v.1.15,2013-05-06 10:49:00,
2013-05-06 05:54:00,42.8,42.0,29.77,ESE,113,0.0,0.0,97,0.00,,,0.03,Wunderground v.1.15,2013-05-06 10:54:00,
2013-05-06 05:59:00,42.8,42.0,29.77,ESE,113,0.0,2.0,97,0.00,,,0.03,Wunderground v.1.15,2013-05-06 10:59:00,
2013-05-06 06:04:00,42.9,42.1,29.77,ESE,123,0.0,3.0,97,0.00,,,0.03,Wunderground v.1.15,2013-05-06 11:04:00,
2013-05-06 06:09:00,42.9,42.1,29.77,SSW,211,1.0,3.0,97,0.00,,,0.03,Wunderground v.1.15,2013-05-06 11:09:00,
2013-05-06 06:14:00,43.0,42.2,29.78,SSE,158,0.0,2.0,97,0.00,,,0.03,Wunderground v.1.15,2013-05-06 11:14:00,
2013-05-06 06:19:00,43.0,42.2,29.78,ESE,121,0.0,2.0,97,0.00,,,0.03,Wunderground v.1.15,2013-05-06 11:19:00,
2013-05-06 06:24:00,43.0,42.2,29.78,ESE,121,0.0,0.0,97,0.00,,,0.03,Wunderground v.1.15,2013-05-06 11:24:00,
2013-05-06 06:29:00,43.0,42.2,29.78,ESE,121,0.0,0.0,97,0.00,,,0.03,Wunderground v.1.15,2013-05-06 11:29:00,
2013-05-06 06:34:00,43.0,42.2,29.78,South,176,0.0,0.0,97,0.00,,,0.03,Wunderground v.1.15,2013-05-06 11:34:00,
2013-05-06 06:39:00,43.1,42.3,29.79,South,176,0.0,0.0,97,0.00,,,0.03,Wunderground v.1.15,2013-05-06 11:39:00,
2013-05-06 06:45:00,43.1,42.3,29.79,SE,133,0.0,3.0,97,0.00,,,0.03,Wunderground v.1.15,2013-05-06 11:45:00,
2013-05-06 06:50:00,43.1,42.3,29.79,SSE,163,0.0,3.0,97,0.00,,,0.03,Wunderground v.1.15,2013-05-06 11:50:00,
2013-05-06 06:55:00,43.1,42.3,29.79,WNW,301,0.0,2.0,97,0.00,,,0.03,Wunderground v.1.15,2013-05-06 11:55:00,
2013-05-06 07:00:00,43.1,42.3,29.79,SSE,157,0.0,2.0,97,0.00,,,0.03,Wunderground v.1.15,2013-05-06 12:00:00,
2013-05-06 07:05:00,43.2,42.4,29.79,ESE,111,0.0,2.0,97,0.00,,,0.03,Wunderground v.1.15,2013-05-06 12:05:00,
2013-05-06 07:10:00,43.2,42.4,29.80,SE,134,0.0,3.0,97,0.00,,,0.03,Wunderground v.1.15,2013-05-06 12:10:00,
2013-05-06 07:15:00,43.3,42.5,29.79,SE,134,0.0,1.0,97,0.00,,,0.03,Wunderground v.1.15,2013-05-06 12:15:00,
2013-05-06 07:20:00,43.4,42.6,29.79,SE,126,0.0,3.0,97,0.00,,,0.03,Wunderground v.1.15,2013-05-06 12:20:00,
2013-05-06 07:25:00,43.5,42.7,29.79,SE,124,0.0,2.0,97,0.00,,,0.03,Wunderground v.1.15,2013-05-06 12:25:00,
2013-05-06 07:30:00,43.7,42.9,29.79,SE,129,0.0,3.0,97,0.00,,,0.03,Wunderground v.1.15,2013-05-06 12:30:00,
2013-05-06 07:35:00,43.8,43.0,29.79,SE,130,2.0,4.0,97,0.00,,,0.03,Wunderground v.1.15,2013-05-06 12:35:00,
2013-05-06 07:40:00,43.8,43.0,29.79,ESE,121,2.0,2.0,97,0.00,,,0.03,Wunderground v.1.15,2013-05-06 12:40:00,
2013-05-06 07:45:00,43.9,43.1,29.80,ESE,123,5.0,5.0,97,0.00,,,0.03,Wunderground v.1.15,2013-05-06 12:45:00,
2013-05-06 07:50:00,43.9,43.1,29.79,SE,124,1.0,1.0,97,0.00,,,0.03,Wunderground v.1.15,2013-05-06 12:50:00,
2013-05-06 07:55:00,43.9,43.1,29.79,SE,131,1.0,5.0,97,0.00,,,0.03,Wunderground v.1.15,2013-05-06 12:55:00,
2013-05-06 08:00:00,43.9,43.1,29.79,SE,138,6.0,6.0,97,0.00,,,0.03,Wunderground v.1.15,2013-05-06 13:00:00,
2013-05-06 08:05:00,44.0,43.2,29.79,SE,142,4.0,6.0,97,0.00,,,0.03,Wunderground v.1.15,2013-05-06 13:05:00,
2013-05-06 08:10:00,44.1,43.3,29.80,SE,134,1.0,1.0,97,0.00,,,0.03,Wunderground v.1.15,2013-05-06 13:10:00,
2013-05-06 08:15:00,44.2,43.4,29.80,ESE,117,2.0,2.0,97,0.00,,,0.03,Wunderground v.1.15,2013-05-06 13:15:00,
2013-05-06 08:20:00,44.2,43.4,29.80,East,99,0.0,0.0,97,0.00,,,0.03,Wunderground v.1.15,2013-05-06 13:20:00,
2013-05-06 08:25:00,44.3,43.5,29.81,NNE,22,0.0,3.0,97,0.00,,,0.03,Wunderground v.1.15,2013-05-06 13:25:00,
2013-05-06 08:30:00,44.3,43.5,29.81,ESE,116,1.0,2.0,97,0.00,,,0.03,Wunderground v.1.15,2013-05-06 13:30:00,
2013-05-06 08:35:00,44.4,43.6,29.81,SE,138,0.0,2.0,97,0.00,,,0.03,Wunderground v.1.15,2013-05-06 13:35:00,
2013-05-06 08:40:00,44.4,43.6,29.81,ENE,71,0.0,0.0,97,0.00,,,0.03,Wunderground v.1.15,2013-05-06 13:40:00,
2013-05-06 08:45:00,44.3,43.5,29.81,ESE,113,0.0,3.0,97,0.00,,,0.03,Wunderground v.1.15,2013-05-06 13:45:00,
2013-05-06 08:50:00,44.4,43.6,29.81,SE,126,3.0,3.0,97,0.00,,,0.03,Wunderground v.1.15,2013-05-06 13:50:00,
2013-05-06 08:55:00,44.3,43.5,29.81,SSE,163,0.0,4.0,97,0.00,,,0.03,Wunderground v.1.15,2013-05-06 13:55:00,
2013-05-06 09:00:00,44.4,43.6,29.81,SSE,157,0.0,0.0,97,0.00,,,0.03,Wunderground v.1.15,2013-05-06 14:00:00,
2013-05-06 09:05:00,44.6,43.8,29.81,ENE,60,0.0,4.0,97,0.00,,,0.03,Wunderground v.1.15,2013-05-06 14:05:00,
2013-05-06 09:10:00,44.7,43.9,29.82,SSE,149,0.0,0.0,97,0.00,,,0.03,Wunderground v.1.15,2013-05-06 14:10:00,
2013-05-06 09:15:00,44.6,43.8,29.82,SSE,149,0.0,0.0,97,0.00,,,0.03,Wunderground v.1.15,2013-05-06 14:15:00,
2013-05-06 09:20:00,44.4,43.6,29.82,ESE,119,0.0,0.0,97,0.00,,,0.04,Wunderground v.1.15,2013-05-06 14:20:00,
2013-05-06 09:26:00,44.5,43.7,29.82,ESE,119,0.0,0.0,97,0.00,,,0.04,Wunderground v.1.15,2013-05-06 14:26:00,
2013-05-06 09:31:00,44.6,43.8,29.82,ESE,119,0.0,0.0,97,0.00,,,0.04,Wunderground v.1.15,2013-05-06 14:31:00,
2013-05-06 09:36:00,44.9,44.1,29.82,ESE,119,0.0,2.0,97,0.00,,,0.04,Wunderground v.1.15,2013-05-06 14:36:00,
2013-05-06 09:41:00,45.0,44.2,29.82,ESE,121,2.0,3.0,97,0.00,,,0.04,Wunderground v.1.15,2013-05-06 14:41:00,
2013-05-06 09:46:00,45.4,44.6,29.82,SE,136,0.0,3.0,97,0.00,,,0.04,Wunderground v.1.15,2013-05-06 14:46:00,
2013-05-06 09:51:00,45.9,45.1,29.82,SE,146,0.0,0.0,97,0.00,,,0.04,Wunderground v.1.15,2013-05-06 14:51:00,
2013-05-06 09:56:00,46.6,45.8,29.82,ESE,109,0.0,2.0,97,0.00,,,0.04,Wunderground v.1.15,2013-05-06 14:56:00,
2013-05-06 10:01:00,46.8,46.3,29.82,SSW,207,0.0,1.0,98,0.00,,,0.04,Wunderground v.1.15,2013-05-06 15:01:00,
2013-05-06 10:06:00,46.5,45.7,29.83,East,95,0.0,5.0,97,0.00,,,0.04,Wunderground v.1.15,2013-05-06 15:06:00,
2013-05-06 10:11:00,46.7,45.9,29.83,SSE,153,1.0,1.0,97,0.00,,,0.04,Wunderground v.1.15,2013-05-06 15:11:00,
2013-05-06 10:16:00,46.8,46.3,29.83,ESE,104,0.0,2.0,98,0.00,,,0.04,Wunderground v.1.15,2013-05-06 15:16:00,
2013-05-06 10:21:00,46.7,45.9,29.83,ESE,113,0.0,1.0,97,0.00,,,0.04,Wunderground v.1.15,2013-05-06 15:21:00,
2013-05-06 10:26:00,46.5,45.7,29.83,SE,128,0.0,5.0,97,0.00,,,0.04,Wunderground v.1.15,2013-05-06 15:26:00,
2013-05-06 10:31:00,46.2,45.4,29.83,SE,137,0.0,0.0,97,0.23,,,0.06,Wunderground v.1.15,2013-05-06 15:31:00,
2013-05-06 10:36:00,46.1,45.3,29.83,SE,135,1.0,2.0,97,0.10,,,0.06,Wunderground v.1.15,2013-05-06 15:36:00,
2013-05-06 10:41:00,46.2,45.4,29.83,SE,132,0.0,1.0,97,0.07,,,0.07,Wunderground v.1.15,2013-05-06 15:41:00,
2013-05-06 10:46:00,46.4,45.6,29.83,SE,144,0.0,6.0,97,0.07,,,0.07,Wunderground v.1.15,2013-05-06 15:46:00,
2013-05-06 10:51:00,46.4,45.6,29.83,SE,124,3.0,7.0,97,0.05,,,0.07,Wunderground v.1.15,2013-05-06 15:51:00,
2013-05-06 10:57:00,46.3,45.5,29.83,SE,136,1.0,7.0,97,0.00,,,0.07,Wunderground v.1.15,2013-05-06 15:57:00,
2013-05-06 11:02:00,46.4,45.6,29.83,ESE,123,0.0,1.0,97,0.00,,,0.07,Wunderground v.1.15,2013-05-06 16:02:00,
2013-05-06 11:07:00,47.3,46.5,29.83,ESE,122,0.0,3.0,97,0.00,,,0.07,Wunderground v.1.15,2013-05-06 16:07:00,
2013-05-06 11:12:00,47.6,46.8,29.83,SSW,209,0.0,1.0,97,0.00,,,0.07,Wunderground v.1.15,2013-05-06 16:12:00,
2013-05-06 11:17:00,47.8,47.0,29.83,East,98,0.0,2.0,97,0.00,,,0.07,Wunderground v.1.15,2013-05-06 16:17:00,
2013-05-06 11:22:00,48.5,47.7,29.83,ESE,109,0.0,0.0,97,0.00,,,0.07,Wunderground v.1.15,2013-05-06 16:22:00,
2013-05-06 11:27:00,48.9,48.1,29.83,NW,314,0.0,4.0,97,0.00,,,0.07,Wunderground v.1.15,2013-05-06 16:27:00,
2013-05-06 11:32:00,49.1,48.3,29.83,West,281,0.0,3.0,97,0.00,,,0.07,Wunderground v.1.15,2013-05-06 16:32:00,
2013-05-06 11:37:00,48.9,48.1,29.83,WNW,288,0.0,3.0,97,0.00,,,0.07,Wunderground v.1.15,2013-05-06 16:37:00,
2013-05-06 11:42:00,49.0,48.2,29.83,NE,45,1.0,2.0,97,0.00,,,0.07,Wunderground v.1.15,2013-05-06 16:42:00,
2013-05-06 11:47:00,48.8,47.7,29.83,East,90,2.0,5.0,96,0.00,,,0.07,Wunderground v.1.15,2013-05-06 16:47:00,
2013-05-06 11:52:00,48.3,46.7,29.83,North,355,0.0,2.0,94,0.00,,,0.07,Wunderground v.1.15,2013-05-06 16:52:00,
2013-05-06 11:57:00,47.7,46.1,29.83,ENE,72,0.0,5.0,94,0.00,,,0.07,Wunderground v.1.15,2013-05-06 16:57:00,
2013-05-06 12:02:00,47.4,45.8,29.83,North,355,1.0,3.0,94,0.00,,,0.07,Wunderground v.1.15,2013-05-06 17:02:00,
2013-05-06 12:07:00,47.2,45.6,29.83,North,355,0.0,3.0,94,0.00,,,0.07,Wunderground v.1.15,2013-05-06 17:07:00,
2013-05-06 12:12:00,46.9,45.3,29.83,South,173,1.0,3.0,94,0.00,,,0.07,Wunderground v.1.15,2013-05-06 17:12:00,
2013-05-06 12:17:00,46.7,45.1,29.83,SSW,202,0.0,4.0,94,0.00,,,0.07,Wunderground v.1.15,2013-05-06 17:17:00,
2013-05-06 12:22:00,46.7,45.1,29.83,SSE,150,0.0,5.0,94,0.00,,,0.07,Wunderground v.1.15,2013-05-06 17:22:00,
2013-05-06 12:27:00,46.7,45.1,29.83,SSE,150,0.0,5.0,94,0.00,,,0.08,Wunderground v.1.15,2013-05-06 17:27:00,
2013-05-06 12:32:00,46.6,45.0,29.83,ESE,122,0.0,3.0,94,0.00,,,0.08,Wunderground v.1.15,2013-05-06 17:32:00,
2013-05-06 12:37:00,46.5,45.1,29.83,SSE,153,2.0,5.0,95,0.05,,,0.09,Wunderground v.1.15,2013-05-06 17:37:00,
2013-05-06 12:42:00,46.6,45.2,29.83,SE,138,1.0,3.0,95,0.05,,,0.09,Wunderground v.1.15,2013-05-06 17:42:00,
2013-05-06 12:47:00,46.8,45.4,29.83,SE,137,0.0,3.0,95,0.04,,,0.09,Wunderground v.1.15,2013-05-06 17:47:00,
2013-05-06 12:52:00,47.1,46.0,29.83,SSE,148,3.0,3.0,96,0.00,,,0.09,Wunderground v.1.15,2013-05-06 17:52:00,
2013-05-06 12:57:00,47.3,46.2,29.83,SSE,148,0.0,3.0,96,0.00,,,0.10,Wunderground v.1.15,2013-05-06 17:57:00,
2013-05-06 13:02:00,47.4,46.0,29.83,SE,139,1.0,2.0,95,0.00,,,0.10,Wunderground v.1.15,2013-05-06 18:02:00,
2013-05-06 13:07:00,47.4,46.0,29.83,SE,129,0.0,3.0,95,0.00,,,0.10,Wunderground v.1.15,2013-05-06 18:07:00,
2013-05-06 13:12:00,47.6,46.2,29.83,SE,129,0.0,2.0,95,0.00,,,0.10,Wunderground v.1.15,2013-05-06 18:12:00,
2013-05-06 13:17:00,47.8,46.4,29.84,SE,129,0.0,3.0,95,0.00,,,0.10,Wunderground v.1.15,2013-05-06 18:17:00,
2013-05-06 13:22:00,48.5,47.4,29.83,SE,129,0.0,1.0,96,0.00,,,0.10,Wunderground v.1.15,2013-05-06 18:22:00,
2013-05-06 13:27:00,49.2,48.1,29.83,SE,129,0.0,1.0,96,0.00,,,0.10,Wunderground v.1.15,2013-05-06 18:27:00,
2013-05-06 13:32:00,50.0,48.9,29.83,SE,129,0.0,1.0,96,0.00,,,0.10,Wunderground v.1.15,2013-05-06 18:32:00,
2013-05-06 13:37:00,50.7,49.3,29.84,North,360,5.0,6.0,95,0.00,,,0.10,Wunderground v.1.15,2013-05-06 18:37:00,
2013-05-06 13:42:00,51.0,49.0,29.83,East,86,1.0,1.0,93,0.00,,,0.10,Wunderground v.1.15,2013-05-06 18:42:00,
2013-05-06 13:47:00,51.2,49.2,29.83,ESE,123,0.0,3.0,93,0.00,,,0.10,Wunderground v.1.15,2013-05-06 18:47:00,
2013-05-06 13:52:00,51.0,48.5,29.83,SE,130,0.0,2.0,91,0.00,,,0.10,Wunderground v.1.15,2013-05-06 18:52:00,
2013-05-06 13:57:00,50.8,48.3,29.83,SE,130,0.0,2.0,91,0.00,,,0.10,Wunderground v.1.15,2013-05-06 18:57:00,
2013-05-06 14:02:00,50.6,47.8,29.83,SE,130,0.0,1.0,90,0.00,,,0.10,Wunderground v.1.15,2013-05-06 19:02:00,
2013-05-06 14:07:00,50.3,47.8,29.83,SE,130,0.0,1.0,91,0.00,,,0.10,Wunderground v.1.15,2013-05-06 19:07:00,
2013-05-06 14:12:00,50.0,47.5,29.83,SE,125,1.0,2.0,91,0.00,,,0.10,Wunderground v.1.15,2013-05-06 19:12:00,
2013-05-06 14:17:00,49.8,47.3,29.83,ESE,109,0.0,2.0,91,0.00,,,0.10,Wunderground v.1.15,2013-05-06 19:17:00,
2013-05-06 14:22:00,49.6,47.4,29.83,SSE,159,0.0,4.0,92,0.00,,,0.10,Wunderground v.1.15,2013-05-06 19:22:00,
2013-05-06 14:27:00,49.4,46.9,29.83,WNW,284,2.0,4.0,91,0.00,,,0.10,Wunderground v.1.15,2013-05-06 19:27:00,
2013-05-06 14:32:00,49.3,46.8,29.83,SSE,168,1.0,2.0,91,0.00,,,0.10,Wunderground v.1.15,2013-05-06 19:32:00,
2013-05-06 14:37:00,49.2,46.7,29.83,ESE,123,0.0,4.0,91,0.00,,,0.10,Wunderground v.1.15,2013-05-06 19:37:00,
2013-05-06 14:43:00,49.5,47.3,29.83,ENE,60,1.0,2.0,92,0.00,,,0.10,Wunderground v.1.15,2013-05-06 19:43:00,
2013-05-06 14:48:00,49.9,48.0,29.83,NW,310,0.0,2.0,93,0.00,,,0.10,Wunderground v.1.15,2013-05-06 19:48:00,
2013-05-06 14:53:00,50.4,48.2,29.83,East,96,0.0,2.0,92,0.00,,,0.10,Wunderground v.1.15,2013-05-06 19:53:00,
2013-05-06 14:58:00,51.3,49.1,29.83,ENE,73,1.0,2.0,92,0.00,,,0.10,Wunderground v.1.15,2013-05-06 19:58:00,
2013-05-06 15:03:00,52.2,49.7,29.83,ENE,61,3.0,3.0,91,0.00,,,0.10,Wunderground v.1.15,2013-05-06 20:03:00,
2013-05-06 15:08:00,52.6,49.1,29.82,West,280,0.0,4.0,88,0.00,,,0.10,Wunderground v.1.15,2013-05-06 20:08:00,
2013-05-06 15:13:00,52.7,48.9,29.82,ENE,68,0.0,3.0,87,0.00,,,0.10,Wunderground v.1.15,2013-05-06 20:13:00,
2013-05-06 15:18:00,52.7,47.7,29.82,SE,144,2.0,4.0,83,0.00,,,0.10,Wunderground v.1.15,2013-05-06 20:18:00,
2013-05-06 15:23:00,52.6,46.9,29.82,SE,146,0.0,1.0,81,0.00,,,0.10,Wunderground v.1.15,2013-05-06 20:23:00,
2013-05-06 15:28:00,52.5,47.5,29.82,ENE,78,0.0,3.0,83,0.00,,,0.10,Wunderground v.1.15,2013-05-06 20:28:00,
2013-05-06 15:33:00,52.3,47.6,29.82,ESE,113,0.0,2.0,84,0.00,,,0.10,Wunderground v.1.15,2013-05-06 20:33:00,
2013-05-06 15:38:00,52.2,47.5,29.82,ESE,109,1.0,5.0,84,0.00,,,0.10,Wunderground v.1.15,2013-05-06 20:38:00,
2013-05-06 15:43:00,51.9,46.6,29.82,SE,128,0.0,2.0,82,0.00,,,0.10,Wunderground v.1.15,2013-05-06 20:43:00,
2013-05-06 15:48:00,51.7,47.0,29.82,SE,142,0.0,2.0,84,0.00,,,0.10,Wunderground v.1.15,2013-05-06 20:48:00,
2013-05-06 15:53:00,51.5,47.1,29.82,SE,140,1.0,2.0,85,0.00,,,0.10,Wunderground v.1.15,2013-05-06 20:53:00,
2013-05-06 15:58:00,51.3,47.3,29.82,SE,135,0.0,4.0,86,0.00,,,0.10,Wunderground v.1.15,2013-05-06 20:58:00,
2013-05-06 16:03:00,51.0,47.0,29.82,ENE,61,2.0,5.0,86,0.00,,,0.10,Wunderground v.1.15,2013-05-06 21:03:00,
2013-05-06 16:08:00,50.6,46.9,29.82,ESE,119,5.0,5.0,87,0.00,,,0.10,Wunderground v.1.15,2013-05-06 21:08:00,
2013-05-06 16:13:00,50.3,46.9,29.81,ESE,123,2.0,6.0,88,0.00,,,0.10,Wunderground v.1.15,2013-05-06 21:13:00,
2013-05-06 16:18:00,50.3,47.2,29.82,SSW,192,1.0,7.0,89,0.00,,,0.10,Wunderground v.1.15,2013-05-06 21:18:00,
2013-05-06 16:23:00,50.3,47.5,29.82,SSE,159,1.0,5.0,90,0.00,,,0.10,Wunderground v.1.15,2013-05-06 21:23:00,
2013-05-06 16:28:00,50.1,47.3,29.82,SE,128,2.0,5.0,90,0.00,,,0.10,Wunderground v.1.15,2013-05-06 21:28:00,
2013-05-06 16:33:00,49.9,46.8,29.82,SE,138,2.0,8.0,89,0.00,,,0.10,Wunderground v.1.15,2013-05-06 21:33:00,
2013-05-06 16:38:00,49.7,46.9,29.82,East,95,6.0,8.0,90,0.00,,,0.10,Wunderground v.1.15,2013-05-06 21:38:00,
2013-05-06 16:43:00,49.7,46.9,29.82,SE,131,0.0,3.0,90,0.00,,,0.10,Wunderground v.1.15,2013-05-06 21:43:00,
2013-05-06 16:48:00,49.7,47.2,29.82,SE,134,1.0,7.0,91,0.00,,,0.10,Wunderground v.1.15,2013-05-06 21:48:00,
2013-05-06 16:53:00,49.6,47.1,29.82,ESE,117,0.0,4.0,91,0.00,,,0.10,Wunderground v.1.15,2013-05-06 21:53:00,
2013-05-06 16:58:00,49.4,47.2,29.83,SSE,160,1.0,4.0,92,0.00,,,0.10,Wunderground v.1.15,2013-05-06 21:58:00,
2013-05-06 17:03:00,49.3,47.1,29.83,SE,135,1.0,1.0,92,0.00,,,0.10,Wunderground v.1.15,2013-05-06 22:03:00,
2013-05-06 17:08:00,49.3,47.4,29.83,ENE,65,0.0,3.0,93,0.00,,,0.11,Wunderground v.1.15,2013-05-06 22:08:00,
2013-05-06 17:13:00,49.2,47.3,29.83,East,86,0.0,2.0,93,0.10,,,0.12,Wunderground v.1.15,2013-05-06 22:13:00,
2013-05-06 17:18:00,49.0,47.1,29.83,SE,135,0.0,5.0,93,0.07,,,0.12,Wunderground v.1.15,2013-05-06 22:18:00,
2013-05-06 17:23:00,48.9,47.0,29.83,SE,130,0.0,2.0,93,0.04,,,0.12,Wunderground v.1.15,2013-05-06 22:23:00,
2013-05-06 17:28:00,48.8,47.2,29.83,ESE,111,1.0,2.0,94,0.04,,,0.13,Wunderground v.1.15,2013-05-06 22:28:00,
2013-05-06 17:33:00,48.7,47.1,29.83,ESE,112,0.0,6.0,94,0.04,,,0.13,Wunderground v.1.15,2013-05-06 22:33:00,
2013-05-06 17:38:00,48.6,47.0,29.83,SE,143,3.0,6.0,94,0.04,,,0.13,Wunderground v.1.15,2013-05-06 22:38:00,
2013-05-06 17:43:00,48.7,47.3,29.83,SE,141,0.0,5.0,95,0.00,,,0.13,Wunderground v.1.15,2013-05-06 22:43:00,
2013-05-06 17:48:00,48.7,47.3,29.83,SE,132,0.0,5.0,95,0.00,,,0.13,Wunderground v.1.15,2013-05-06 22:48:00,
2013-05-06 17:54:00,48.7,47.3,29.83,SE,142,0.0,3.0,95,0.00,,,0.13,Wunderground v.1.15,2013-05-06 22:54:00,
2013-05-06 17:59:00,48.7,47.3,29.83,SE,138,1.0,3.0,95,0.00,,,0.13,Wunderground v.1.15,2013-05-06 22:59:00,
2013-05-06 18:04:00,48.7,47.3,29.83,SE,139,0.0,1.0,95,0.00,,,0.13,Wunderground v.1.15,2013-05-06 23:04:00,
2013-05-06 18:09:00,48.5,46.9,29.84,SE,139,0.0,1.0,94,0.00,,,0.13,Wunderground v.1.15,2013-05-06 23:09:00,
2013-05-06 18:14:00,48.4,47.0,29.84,SE,139,0.0,1.0,95,0.00,,,0.13,Wunderground v.1.15,2013-05-06 23:14:00,
2013-05-06 18:19:00,48.3,46.9,29.84,East,83,0.0,4.0,95,0.00,,,0.13,Wunderground v.1.15,2013-05-06 23:19:00,
2013-05-06 18:24:00,48.2,46.8,29.84,East,83,0.0,0.0,95,0.00,,,0.13,Wunderground v.1.15,2013-05-06 23:24:00,
2013-05-06 18:29:00,48.2,46.8,29.84,SE,127,0.0,2.0,95,0.00,,,0.13,Wunderground v.1.15,2013-05-06 23:29:00,
2013-05-06 18:34:00,48.1,46.7,29.84,SE,127,0.0,0.0,95,0.00,,,0.13,Wunderground v.1.15,2013-05-06 23:34:00,
2013-05-06 18:39:00,48.1,46.7,29.84,SE,127,0.0,0.0,95,0.00,,,0.13,Wunderground v.1.15,2013-05-06 23:39:00,
2013-05-06 18:44:00,48.0,46.6,29.84,SE,127,0.0,0.0,95,0.00,,,0.13,Wunderground v.1.15,2013-05-06 23:44:00,
2013-05-06 18:49:00,48.0,46.6,29.84,SE,127,0.0,0.0,95,0.00,,,0.13,Wunderground v.1.15,2013-05-06 23:49:00,
2013-05-06 18:54:00,48.0,46.6,29.84,SE,127,0.0,1.0,95,0.00,,,0.13,Wunderground v.1.15,2013-05-06 23:54:00,
2013-05-06 18:59:00,47.9,46.5,29.84,SE,127,0.0,1.0,95,0.00,,,0.13,Wunderground v.1.15,2013-05-06 23:59:00,
2013-05-06 19:04:00,47.9,46.5,29.84,SE,127,0.0,1.0,95,0.00,,,0.13,Wunderground v.1.15,2013-05-07 00:04:00,
2013-05-06 19:09:00,47.9,46.5,29.85,SE,127,0.0,2.0,95,0.00,,,0.13,Wunderground v.1.15,2013-05-07 00:09:00,
2013-05-06 19:14:00,47.8,46.4,29.85,SE,127,0.0,0.0,95,0.00,,,0.13,Wunderground v.1.15,2013-05-07 00:14:00,
2013-05-06 19:19:00,47.7,46.3,29.85,SE,127,0.0,0.0,95,0.00,,,0.13,Wunderground v.1.15,2013-05-07 00:19:00,
2013-05-06 19:24:00,47.6,46.2,29.85,SE,127,0.0,0.0,95,0.00,,,0.13,Wunderground v.1.15,2013-05-07 00:24:00,
2013-05-06 19:29:00,47.4,46.0,29.85,SE,127,0.0,0.0,95,0.00,,,0.13,Wunderground v.1.15,2013-05-07 00:29:00,
2013-05-06 19:34:00,47.4,46.0,29.85,SE,127,0.0,0.0,95,0.00,,,0.13,Wunderground v.1.15,2013-05-07 00:34:00,
2013-05-06 19:39:00,47.3,45.9,29.85,SE,127,0.0,0.0,95,0.00,,,0.13,Wunderground v.1.15,2013-05-07 00:39:00,
2013-05-06 19:44:00,47.3,45.9,29.85,SE,127,0.0,0.0,95,0.00,,,0.13,Wunderground v.1.15,2013-05-07 00:44:00,
2013-05-06 19:49:00,47.3,45.9,29.85,SE,127,0.0,0.0,95,0.00,,,0.13,Wunderground v.1.15,2013-05-07 00:49:00,
2013-05-06 19:54:00,47.3,46.2,29.86,SE,127,0.0,0.0,96,0.00,,,0.13,Wunderground v.1.15,2013-05-07 00:54:00,
2013-05-06 19:59:00,47.3,46.2,29.86,SE,127,0.0,0.0,96,0.00,,,0.13,Wunderground v.1.15,2013-05-07 00:59:00,
2013-05-06 20:04:00,47.3,46.2,29.86,SE,127,0.0,0.0,96,0.00,,,0.13,Wunderground v.1.15,2013-05-07 01:04:00,
2013-05-06 20:09:00,47.2,46.1,29.86,SE,127,0.0,0.0,96,0.00,,,0.13,Wunderground v.1.15,2013-05-07 01:09:00,
2013-05-06 20:15:00,47.2,46.1,29.86,SE,127,0.0,0.0,96,0.00,,,0.13,Wunderground v.1.15,2013-05-07 01:15:00,
2013-05-06 20:20:00,47.2,46.1,29.87,SE,127,0.0,0.0,96,0.00,,,0.13,Wunderground v.1.15,2013-05-07 01:20:00,
2013-05-06 20:25:00,47.2,46.1,29.87,SE,127,0.0,1.0,96,0.00,,,0.13,Wunderground v.1.15,2013-05-07 01:25:00,
2013-05-06 20:30:00,47.2,46.1,29.87,SE,127,0.0,0.0,96,0.00,,,0.13,Wunderground v.1.15,2013-05-07 01:30:00,
2013-05-06 20:35:00,47.2,46.1,29.87,SE,127,0.0,1.0,96,0.00,,,0.13,Wunderground v.1.15,2013-05-07 01:35:00,
2013-05-06 20:40:00,47.2,46.1,29.87,SE,127,0.0,0.0,96,0.00,,,0.13,Wunderground v.1.15,2013-05-07 01:40:00,
2013-05-06 20:45:00,47.2,46.1,29.87,SE,127,0.0,0.0,96,0.00,,,0.14,Wunderground v.1.15,2013-05-07 01:45:00,
2013-05-06 20:50:00,47.2,46.1,29.87,SE,127,0.0,0.0,96,0.00,,,0.14,Wunderground v.1.15,2013-05-07 01:50:00,
2013-05-06 20:55:00,47.2,46.1,29.88,SE,127,1.0,2.0,96,0.00,,,0.14,Wunderground v.1.15,2013-05-07 01:55:00,
2013-05-06 21:00:00,47.2,46.1,29.88,ESE,123,0.0,0.0,96,0.00,,,0.14,Wunderground v.1.15,2013-05-07 02:00:00,
2013-05-06 21:05:00,47.1,46.0,29.88,SE,135,0.0,2.0,96,0.00,,,0.14,Wunderground v.1.15,2013-05-07 02:05:00,
2013-05-06 21:10:00,47.0,45.9,29.88,SE,128,0.0,2.0,96,0.00,,,0.14,Wunderground v.1.15,2013-05-07 02:10:00,
2013-05-06 21:15:00,47.0,45.9,29.88,SE,128,0.0,3.0,96,0.00,,,0.14,Wunderground v.1.15,2013-05-07 02:15:00,
2013-05-06 21:20:00,46.9,45.8,29.88,SE,128,0.0,2.0,96,0.00,,,0.14,Wunderground v.1.15,2013-05-07 02:20:00,
2013-05-06 21:25:00,46.7,45.6,29.88,SE,128,0.0,2.0,96,0.00,,,0.14,Wunderground v.1.15,2013-05-07 02:25:00,
2013-05-06 21:30:00,46.6,45.5,29.88,SE,128,0.0,2.0,96,0.00,,,0.14,Wunderground v.1.15,2013-05-07 02:30:00,
2013-05-06 21:35:00,46.4,45.3,29.88,SE,128,0.0,3.0,96,0.00,,,0.14,Wunderground v.1.15,2013-05-07 02:35:00,
2013-05-06 21:40:00,46.3,45.2,29.88,SE,131,3.0,4.0,96,0.00,,,0.14,Wunderground v.1.15,2013-05-07 02:40:00,
2013-05-06 21:45:00,46.2,45.1,29.89,SE,136,2.0,4.0,96,0.00,,,0.14,Wunderground v.1.15,2013-05-07 02:45:00,
2013-05-06 21:51:00,46.2,45.1,29.88,SE,136,3.0,4.0,96,0.00,,,0.14,Wunderground v.1.15,2013-05-07 02:51:00,
2013-05-06 21:56:00,46.2,45.1,29.88,SE,134,5.0,5.0,96,0.00,,,0.14,Wunderground v.1.15,2013-05-07 02:56:00,
2013-05-06 22:01:00,46.1,45.0,29.88,SE,133,3.0,4.0,96,0.00,,,0.14,Wunderground v.1.15,2013-05-07 03:01:00,
2013-05-06 22:06:00,46.0,44.9,29.89,SE,133,3.0,4.0,96,0.00,,,0.14,Wunderground v.1.15,2013-05-07 03:06:00,
2013-05-06 22:11:00,45.9,45.1,29.88,SE,133,3.0,3.0,97,0.00,,,0.14,Wunderground v.1.15,2013-05-07 03:11:00,
2013-05-06 22:16:00,45.8,45.0,29.88,SE,133,3.0,3.0,97,0.00,,,0.14,Wunderground v.1.15,2013-05-07 03:16:00,
2013-05-06 22:21:00,45.8,44.7,29.88,SE,133,2.0,3.0,96,0.00,,,0.14,Wunderground v.1.15,2013-05-07 03:21:00,
2013-05-06 22:26:00,45.7,44.6,29.88,SE,127,2.0,4.0,96,0.00,,,0.14,Wunderground v.1.15,2013-05-07 03:26:00,
2013-05-06 22:31:00,45.6,44.5,29.89,SE,127,0.0,3.0,96,0.00,,,0.14,Wunderground v.1.15,2013-05-07 03:31:00,
2013-05-06 22:36:00,45.5,44.4,29.89,SE,128,3.0,3.0,96,0.00,,,0.14,Wunderground v.1.15,2013-05-07 03:36:00,
2013-05-06 22:41:00,45.4,44.3,29.89,SE,130,2.0,4.0,96,0.00,,,0.14,Wunderground v.1.15,2013-05-07 03:41:00,
2013-05-06 22:46:00,45.5,44.7,29.89,SE,130,2.0,4.0,97,0.00,,,0.14,Wunderground v.1.15,2013-05-07 03:46:00,
2013-05-06 22:51:00,45.6,44.8,29.89,SE,130,4.0,4.0,97,0.00,,,0.14,Wunderground v.1.15,2013-05-07 03:51:00,
2013-05-06 22:56:00,45.7,44.9,29.89,SE,130,3.0,4.0,97,0.00,,,0.14,Wunderground v.1.15,2013-05-07 03:56:00,
2013-05-06 23:01:00,45.7,44.9,29.89,SE,130,4.0,4.0,97,0.00,,,0.14,Wunderground v.1.15,2013-05-07 04:01:00,
2013-05-06 23:06:00,45.8,45.0,29.88,SE,130,2.0,4.0,97,0.00,,,0.14,Wunderground v.1.15,2013-05-07 04:06:00,
2013-05-06 23:11:00,45.8,45.0,29.89,SE,130,1.0,3.0,97,0.00,,,0.14,Wunderground v.1.15,2013-05-07 04:11:00,
2013-05-06 23:16:00,45.7,44.9,29.89,NNE,14,3.0,3.0,97,0.00,,,0.14,Wunderground v.1.15,2013-05-07 04:16:00,
2013-05-06 23:21:00,45.7,44.9,29.89,NNE,19,0.0,3.0,97,0.00,,,0.14,Wunderground v.1.15,2013-05-07 04:21:00,
2013-05-06 23:26:00,45.7,44.9,29.88,ESE,123,4.0,4.0,97,0.00,,,0.14,Wunderground v.1.15,2013-05-07 04:26:00,
2013-05-06 23:31:00,45.7,44.9,29.89,ESE,111,2.0,3.0,97,0.00,,,0.14,Wunderground v.1.15,2013-05-07 04:31:00,
2013-05-06 23:37:00,45.7,44.9,29.89,ESE,111,0.0,4.0,97,0.00,,,0.14,Wunderground v.1.15,2013-05-07 04:37:00,
2013-05-06 23:42:00,45.6,44.8,29.89,ESE,102,1.0,1.0,97,0.00,,,0.14,Wunderground v.1.15,2013-05-07 04:42:00,
2013-05-06 23:47:00,45.5,44.7,29.89,ESE,102,1.0,2.0,97,0.00,,,0.14,Wunderground v.1.15,2013-05-07 04:47:00,
2013-05-06 23:52:00,45.4,44.6,29.89,ESE,105,1.0,2.0,97,0.00,,,0.14,Wunderground v.1.15,2013-05-07 04:52:00,
2013-05-06 23:57:00,45.3,44.5,29.89,ENE,77,2.0,2.0,97,0.00,,,0.14,Wunderground v.1.15,2013-05-07 04:57:00,